Time;durP1;ratioP1;P1;durP2;ratioP2;P2;SDS_P1;SDS_P2;PMS_P1;PMS_P2;Temp;Humidity;BMP_temperature;BMP_pressure;BME280_temperature;BME280_humidity;BME280_pressure;Samples;Min_cycle;Max_cycle;Signal;HPM_P1;HPM_P2
2022/06/04 00:00:17;;;;;;;6.25;5.75;;;19.30;99.90;;;;;;5009144;28;20614;-75
2022/06/04 00:02:47;;;;;;;6.82;6.22;;;19.30;99.90;;;;;;5010789;28;20220;-76
2022/06/04 00:05:17;;;;;;;6.13;5.63;;;19.30;99.90;;;;;;5010365;28;20197;-76
2022/06/04 00:07:45;;;;;;;6.03;5.43;;;19.20;99.90;;;;;;4995203;28;20213;-76
2022/06/04 00:15:45;;;;;;;5.70;5.30;;;19.20;99.90;;;;;;5007792;28;20259;-76
2022/06/04 00:18:14;;;;;;;5.47;5.07;;;19.20;99.90;;;;;;5009231;28;20278;-76
2022/06/04 00:20:42;;;;;;;6.07;5.47;;;19.20;99.90;;;;;;5008256;28;20589;-76
2022/06/04 00:23:11;;;;;;;5.45;5.05;;;19.20;99.90;;;;;;5008251;28;20236;-76
2022/06/04 00:25:40;;;;;;;7.03;5.80;;;19.20;99.90;;;;;;5005798;28;20556;-76
2022/06/04 00:28:09;;;;;;;5.55;5.15;;;19.20;99.90;;;;;;5004651;28;20216;-76
2022/06/04 00:30:37;;;;;;;6.18;5.57;;;19.20;99.90;;;;;;5007403;28;20270;-76
2022/06/04 00:33:05;;;;;;;5.75;5.10;;;19.10;99.90;;;;;;5007499;28;20224;-76
2022/06/04 00:35:34;;;;;;;5.18;4.75;;;19.10;99.90;;;;;;5007656;28;20200;-76
2022/06/04 00:38:02;;;;;;;5.55;5.15;;;19.10;99.90;;;;;;5007756;28;20217;-76
2022/06/04 00:40:37;;;;;;;5.53;5.10;;;19.10;99.90;;;;;;5012260;28;20542;-75
2022/06/04 00:43:04;;;;;;;5.25;4.85;;;19.10;99.90;;;;;;5009910;28;20816;-76
2022/06/04 00:46:17;;;;;;;5.38;4.90;;;19.20;99.90;;;;;;5006817;28;20204;-76
2022/06/04 00:48:44;;;;;;;5.32;4.85;;;19.20;99.90;;;;;;5007230;28;20667;-76
2022/06/04 00:51:13;;;;;;;5.40;5.00;;;19.20;99.90;;;;;;5006104;28;20220;-76
2022/06/04 00:53:41;;;;;;;5.40;5.10;;;19.20;99.90;;;;;;5003844;28;20222;-76
2022/06/04 00:56:19;;;;;;;5.55;5.15;;;19.20;99.90;;;;;;5007069;28;20200;-76
2022/06/04 00:58:59;;;;;;;4.43;4.13;;;19.20;99.90;;;;;;5006258;28;20228;-76
2022/06/04 01:01:29;;;;;;;5.22;4.72;;;19.20;99.90;;;;;;5000737;28;20219;-76
2022/06/04 01:04:06;;;;;;;5.18;4.88;;;19.10;99.90;;;;;;5005077;28;20223;-75
2022/06/04 01:06:47;;;;;;;5.55;5.05;;;19.10;99.90;;;;;;5006511;28;20192;-76
2022/06/04 01:09:48;;;;;;;6.32;5.82;;;19.10;99.90;;;;;;5007265;28;20230;-75
2022/06/04 01:12:37;;;;;;;5.47;5.00;;;19.10;99.90;;;;;;5007091;28;20204;-76
2022/06/04 01:15:18;;;;;;;6.78;6.18;;;19.10;99.90;;;;;;5005855;28;20575;-76
2022/06/04 01:17:56;;;;;;;6.97;6.10;;;19.00;99.90;;;;;;5006854;28;20753;-76
2022/06/04 01:20:34;;;;;;;6.03;5.60;;;19.00;99.90;;;;;;5004893;28;20228;-76
2022/06/04 01:23:35;;;;;;;6.07;5.57;;;18.90;99.90;;;;;;5005727;28;20231;-75
2022/06/04 01:26:30;;;;;;;5.20;4.80;;;18.80;99.90;;;;;;5002882;28;20558;-77
2022/06/04 01:29:04;;;;;;;7.68;6.97;;;18.90;99.90;;;;;;5006089;28;20220;-76
2022/06/04 01:31:36;;;;;;;7.68;7.03;;;18.90;99.90;;;;;;5002555;28;20199;-77
2022/06/04 01:34:08;;;;;;;7.43;6.82;;;19.00;99.90;;;;;;5013841;28;20772;-76
2022/06/04 01:36:42;;;;;;;8.15;7.35;;;19.00;99.90;;;;;;5005736;28;20211;-76
2022/06/04 01:39:16;;;;;;;7.80;7.10;;;19.00;99.90;;;;;;5005006;28;20234;-76
2022/06/04 01:41:47;;;;;;;7.15;6.60;;;19.00;99.90;;;;;;5004962;28;20639;-77
2022/06/04 01:44:20;;;;;;;6.13;5.63;;;18.90;99.90;;;;;;5006669;28;20305;-76
2022/06/04 01:46:51;;;;;;;5.80;5.40;;;18.90;99.90;;;;;;5007509;28;20279;-76
2022/06/04 01:49:22;;;;;;;5.80;5.30;;;18.90;99.90;;;;;;5006036;28;20221;-76
2022/06/04 01:51:53;;;;;;;6.75;6.25;;;18.90;99.90;;;;;;5007771;28;20209;-76
2022/06/04 01:54:26;;;;;;;6.57;6.07;;;18.90;99.90;;;;;;5006568;28;20216;-76
2022/06/04 01:57:00;;;;;;;6.82;6.32;;;18.90;99.90;;;;;;5006394;28;20200;-75
2022/06/04 01:59:32;;;;;;;6.45;5.95;;;18.90;99.90;;;;;;5007234;28;20227;-76
2022/06/04 02:02:04;;;;;;;6.85;6.22;;;18.90;99.90;;;;;;5006630;28;20203;-76
2022/06/04 02:04:36;;;;;;;7.63;6.60;;;18.90;99.90;;;;;;5006164;28;20228;-76
2022/06/04 02:09:59;;;;;;;8.13;7.43;;;18.90;99.90;;;;;;5006731;28;20370;-76
2022/06/04 02:12:28;;;;;;;7.93;7.20;;;18.90;99.90;;;;;;5004064;28;20201;-76
2022/06/04 02:14:55;;;;;;;6.78;6.22;;;18.80;99.90;;;;;;5005677;28;20220;-76
2022/06/04 02:17:26;;;;;;;6.82;6.28;;;18.80;99.90;;;;;;5007008;28;20200;-76
2022/06/04 02:19:53;;;;;;;7.07;6.53;;;18.80;99.90;;;;;;5005628;28;20226;-76
2022/06/04 02:22:20;;;;;;;6.53;6.03;;;18.80;99.90;;;;;;5004262;28;21547;-76
2022/06/04 02:24:47;;;;;;;6.47;5.97;;;18.80;99.90;;;;;;5014343;28;20219;-76
2022/06/04 02:27:15;;;;;;;6.03;5.53;;;18.80;99.90;;;;;;5005682;28;20196;-76
2022/06/04 02:29:44;;;;;;;5.60;5.20;;;18.80;99.90;;;;;;5002536;28;20220;-76
2022/06/04 02:32:20;;;;;;;5.43;5.03;;;18.80;99.90;;;;;;5006221;28;20608;-76
2022/06/04 02:34:58;;;;;;;5.40;5.00;;;18.90;99.90;;;;;;5005422;28;20238;-76
2022/06/04 02:37:32;;;;;;;5.40;4.97;;;18.90;99.90;;;;;;5005028;28;20207;-76
2022/06/04 02:40:05;;;;;;;5.90;5.32;;;18.90;99.90;;;;;;5004385;28;20620;-75
2022/06/04 02:42:38;;;;;;;5.55;5.15;;;18.90;99.90;;;;;;5004702;28;20659;-75
2022/06/04 02:45:13;;;;;;;7.78;6.90;;;18.90;99.90;;;;;;5005471;28;20234;-75
2022/06/04 02:47:46;;;;;;;6.53;6.03;;;18.90;99.90;;;;;;5005030;28;20680;-77
2022/06/04 02:50:18;;;;;;;6.32;5.68;;;18.90;99.90;;;;;;5002020;28;20232;-76
2022/06/04 02:52:47;;;;;;;5.72;5.25;;;18.80;99.90;;;;;;5006110;28;20215;-76
2022/06/04 02:55:17;;;;;;;5.50;5.10;;;18.80;99.90;;;;;;5004718;28;20212;-76
2022/06/04 02:57:47;;;;;;;5.65;5.15;;;18.80;99.90;;;;;;5004674;28;20453;-76
2022/06/04 03:00:22;;;;;;;5.53;5.05;;;18.80;99.90;;;;;;5004201;28;20251;-76
2022/06/04 03:02:51;;;;;;;5.10;4.70;;;18.80;99.90;;;;;;5004788;28;20740;-76
2022/06/04 03:05:20;;;;;;;5.18;4.78;;;18.80;99.90;;;;;;5006954;28;20230;-76
2022/06/04 03:07:50;;;;;;;5.97;5.55;;;18.80;99.90;;;;;;5006111;28;20204;-76
2022/06/04 03:10:20;;;;;;;5.70;5.20;;;18.80;99.90;;;;;;5007661;28;20216;-76
2022/06/04 03:12:48;;;;;;;5.93;5.32;;;18.80;99.90;;;;;;5005288;28;20204;-76
2022/06/04 03:15:17;;;;;;;5.53;5.03;;;18.80;99.90;;;;;;5005086;28;20227;-76
2022/06/04 03:17:46;;;;;;;7.60;6.90;;;18.70;99.90;;;;;;5010716;28;20204;-76
2022/06/04 03:20:18;;;;;;;7.88;7.07;;;18.60;99.90;;;;;;5003703;28;20251;-76
2022/06/04 03:22:45;;;;;;;7.65;6.95;;;18.60;99.90;;;;;;5009385;28;20211;-76
2022/06/04 03:25:12;;;;;;;6.85;6.15;;;18.60;99.90;;;;;;5010948;28;20753;-76
2022/06/04 03:27:40;;;;;;;7.88;7.15;;;18.60;99.90;;;;;;5007161;28;20211;-76
2022/06/04 03:30:08;;;;;;;7.85;7.22;;;18.50;99.90;;;;;;5006838;28;20219;-76
2022/06/04 03:32:37;;;;;;;7.15;6.55;;;18.50;99.90;;;;;;5007652;28;20659;-75
2022/06/04 03:35:05;;;;;;;7.78;7.13;;;18.40;99.90;;;;;;5007486;28;20226;-76
2022/06/04 03:37:33;;;;;;;7.50;6.80;;;18.40;99.90;;;;;;5010211;28;20591;-76
2022/06/04 03:40:00;;;;;;;7.05;6.55;;;18.40;99.90;;;;;;5007747;28;20251;-75
2022/06/04 03:42:27;;;;;;;7.05;6.45;;;18.40;99.90;;;;;;5008646;28;20188;-75
2022/06/04 03:44:54;;;;;;;7.15;6.18;;;18.40;99.90;;;;;;5007602;28;20215;-75
2022/06/04 03:47:22;;;;;;;6.60;6.10;;;18.50;99.90;;;;;;5008765;28;20208;-75
2022/06/04 03:49:50;;;;;;;6.65;6.15;;;18.50;99.90;;;;;;5008744;28;20228;-75
2022/06/04 03:52:17;;;;;;;6.35;5.85;;;18.60;99.90;;;;;;5007425;28;20208;-76
2022/06/04 03:54:54;;;;;;;6.93;6.43;;;18.60;99.90;;;;;;5009851;28;20220;-76
2022/06/04 03:57:39;;;;;;;6.97;6.38;;;18.60;99.90;;;;;;5006951;28;20204;-76
2022/06/04 04:00:10;;;;;;;7.35;6.65;;;18.60;99.90;;;;;;5008319;28;20319;-76
2022/06/04 04:02:37;;;;;;;7.88;6.82;;;18.60;99.90;;;;;;5007519;28;20271;-76
2022/06/04 04:05:07;;;;;;;7.35;6.75;;;18.50;99.90;;;;;;5008175;28;20588;-76
2022/06/04 04:07:34;;;;;;;7.20;6.60;;;18.50;99.90;;;;;;5009200;28;20203;-77
2022/06/04 04:10:02;;;;;;;6.95;6.35;;;18.50;99.90;;;;;;5012994;28;20224;-75
2022/06/04 04:12:29;;;;;;;8.00;7.38;;;18.60;99.90;;;;;;5007498;28;20200;-76
2022/06/04 04:14:57;;;;;;;6.25;5.75;;;18.60;99.90;;;;;;5006588;28;20306;-76
2022/06/04 04:17:24;;;;;;;6.70;6.20;;;18.60;99.90;;;;;;5010011;28;20203;-76
2022/06/04 04:19:52;;;;;;;5.85;5.40;;;18.60;99.90;;;;;;5006422;28;20710;-76
2022/06/04 04:22:21;;;;;;;6.40;5.90;;;18.60;99.90;;;;;;5009135;28;20196;-75
2022/06/04 04:24:48;;;;;;;6.55;6.05;;;18.70;99.90;;;;;;5004800;28;20230;-75
2022/06/04 04:27:15;;;;;;;5.75;5.25;;;18.80;99.90;;;;;;5007149;28;20200;-77
2022/06/04 04:29:42;;;;;;;6.55;5.95;;;18.80;99.90;;;;;;5004675;28;20657;-78
2022/06/04 04:32:10;;;;;;;5.70;5.30;;;18.90;99.90;;;;;;5008540;28;20207;-78
2022/06/04 04:34:38;;;;;;;5.32;4.95;;;18.90;99.90;;;;;;5002683;28;20228;-77
2022/06/04 04:37:05;;;;;;;5.55;5.10;;;19.00;99.90;;;;;;5012250;28;20192;-77
2022/06/04 04:39:34;;;;;;;6.03;5.53;;;19.00;99.90;;;;;;5009353;28;20228;-77
2022/06/04 04:42:01;;;;;;;5.82;5.32;;;19.10;99.90;;;;;;5003778;28;20212;-77
2022/06/04 04:44:28;;;;;;;6.65;6.05;;;19.10;99.90;;;;;;5007240;28;20223;-77
2022/06/04 04:46:55;;;;;;;6.68;6.07;;;19.10;99.90;;;;;;5009110;28;20307;-76
2022/06/04 04:49:22;;;;;;;7.25;6.65;;;19.00;99.90;;;;;;5002042;28;20611;-77
2022/06/04 04:51:50;;;;;;;6.18;5.78;;;19.00;99.90;;;;;;4988500;28;20193;-77
2022/06/04 04:54:17;;;;;;;7.15;6.55;;;19.00;99.90;;;;;;4990297;28;20220;-77
2022/06/04 04:56:46;;;;;;;7.50;6.90;;;19.00;99.90;;;;;;5004402;28;20200;-77
2022/06/04 04:59:14;;;;;;;7.38;6.70;;;18.90;99.90;;;;;;5005776;28;20219;-76
2022/06/04 05:01:41;;;;;;;6.75;6.25;;;18.90;99.90;;;;;;5008101;28;20203;-77
2022/06/04 05:04:08;;;;;;;7.53;6.82;;;18.90;99.90;;;;;;5010486;28;20228;-77
2022/06/04 05:06:35;;;;;;;6.40;5.90;;;18.90;99.90;;;;;;5011839;28;20200;-77
2022/06/04 05:09:02;;;;;;;7.78;7.07;;;18.90;99.90;;;;;;5013864;28;20220;-77
2022/06/04 05:11:32;;;;;;;6.10;5.60;;;18.90;99.90;;;;;;5011659;28;20216;-77
2022/06/04 05:14:01;;;;;;;6.72;6.15;;;19.00;99.90;;;;;;5005716;28;20232;-78
2022/06/04 05:16:31;;;;;;;5.65;5.25;;;19.00;99.90;;;;;;5011244;28;20674;-77
2022/06/04 05:18:58;;;;;;;6.57;6.00;;;19.00;99.90;;;;;;5016885;28;20212;-77
2022/06/04 05:21:27;;;;;;;6.43;5.82;;;19.10;99.90;;;;;;5010908;28;20220;-77
2022/06/04 05:23:56;;;;;;;5.93;5.30;;;19.10;99.90;;;;;;5007965;28;20204;-78
2022/06/04 05:26:23;;;;;;;6.32;5.82;;;19.10;99.90;;;;;;5006972;28;20200;-77
2022/06/04 05:28:51;;;;;;;5.78;5.28;;;19.20;99.90;;;;;;5014231;28;20215;-77
2022/06/04 05:31:20;;;;;;;5.80;5.35;;;19.30;99.90;;;;;;5019248;28;20720;-77
2022/06/04 05:33:48;;;;;;;6.60;6.00;;;19.30;99.90;;;;;;5015271;28;20207;-77
2022/06/04 05:36:15;;;;;;;6.70;6.20;;;19.40;99.90;;;;;;5010309;28;20255;-76
2022/06/04 05:38:42;;;;;;;6.50;5.90;;;19.50;99.90;;;;;;5008421;28;20207;-78
2022/06/04 05:41:13;;;;;;;6.43;5.93;;;19.50;99.90;;;;;;5009287;28;20228;-77
2022/06/04 05:43:40;;;;;;;8.27;7.47;;;19.50;99.90;;;;;;5006349;28;20254;-76
2022/06/04 05:46:10;;;;;;;8.35;7.10;;;19.50;99.90;;;;;;5007009;28;20616;-77
2022/06/04 05:48:42;;;;;;;7.10;6.50;;;19.50;99.90;;;;;;5011046;28;20196;-77
2022/06/04 05:51:11;;;;;;;9.35;8.55;;;19.50;99.90;;;;;;5153207;23;20247;-76
2022/06/04 05:53:38;;;;;;;8.00;7.30;;;19.40;99.90;;;;;;5039022;28;20234;-76
2022/06/04 05:56:12;;;;;;;8.02;7.32;;;19.30;99.90;;;;;;5029561;28;20234;-77
2022/06/04 05:58:39;;;;;;;8.20;7.40;;;19.30;99.90;;;;;;5034760;28;20190;-77
2022/06/04 06:01:06;;;;;;;7.50;6.80;;;19.30;99.90;;;;;;5053960;28;20221;-77
2022/06/04 06:03:34;;;;;;;6.97;6.28;;;19.60;99.90;;;;;;5050544;28;20593;-76
2022/06/04 06:06:02;;;;;;;7.90;6.82;;;19.90;99.90;;;;;;5050796;28;20226;-76
2022/06/04 06:08:30;;;;;;;9.20;6.32;;;20.10;99.90;;;;;;5041098;28;20613;-76
2022/06/04 06:10:58;;;;;;;6.40;5.78;;;20.50;99.90;;;;;;5045629;28;20215;-77
2022/06/04 06:13:26;;;;;;;6.45;5.95;;;20.90;99.90;;;;;;5045478;28;20202;-76
2022/06/04 06:15:53;;;;;;;6.38;5.88;;;21.20;99.90;;;;;;5048418;28;20629;-79
2022/06/04 06:18:20;;;;;;;5.60;5.07;;;21.40;99.90;;;;;;5047388;28;20202;-79
2022/06/04 06:20:47;;;;;;;6.00;5.50;;;21.60;99.90;;;;;;5045847;28;20272;-79
2022/06/04 06:23:15;;;;;;;5.40;5.00;;;21.80;99.90;;;;;;5049440;28;20210;-79
2022/06/04 06:25:42;;;;;;;6.25;5.40;;;22.00;99.90;;;;;;5046867;28;20227;-79
2022/06/04 06:28:09;;;;;;;6.90;5.28;;;22.10;99.90;;;;;;5047085;28;20577;-79
2022/06/04 06:30:36;;;;;;;5.47;4.95;;;22.10;99.90;;;;;;5045403;28;20210;-79
2022/06/04 06:33:04;;;;;;;5.93;5.40;;;22.10;99.90;;;;;;5048135;28;20601;-79
2022/06/04 06:35:31;;;;;;;5.82;5.32;;;21.90;99.90;;;;;;5045447;28;20214;-79
2022/06/04 06:37:58;;;;;;;5.10;4.70;;;21.70;99.90;;;;;;5046657;28;20287;-79
2022/06/04 06:40:27;;;;;;;6.38;5.78;;;21.70;99.90;;;;;;5046196;28;20277;-79
2022/06/04 06:42:54;;;;;;;5.47;4.97;;;21.80;99.90;;;;;;5048207;28;20214;-79
2022/06/04 06:45:21;;;;;;;5.10;4.70;;;22.00;99.90;;;;;;5047950;28;20225;-80
2022/06/04 06:47:48;;;;;;;6.22;5.47;;;22.20;99.90;;;;;;5050060;28;20199;-79
2022/06/04 06:50:17;;;;;;;5.25;4.38;;;22.40;99.90;;;;;;5043747;28;20207;-80
2022/06/04 06:52:45;;;;;;;6.50;5.38;;;22.50;99.90;;;;;;5044304;28;20234;-79
2022/06/04 06:55:12;;;;;;;6.82;5.13;;;22.50;99.90;;;;;;5043877;28;20214;-79
2022/06/04 06:57:40;;;;;;;6.10;5.30;;;22.60;99.90;;;;;;5042126;28;20207;-79
2022/06/04 07:00:09;;;;;;;5.03;4.63;;;22.70;99.90;;;;;;5038889;28;20226;-78
2022/06/04 07:02:36;;;;;;;6.13;5.25;;;22.70;99.90;;;;;;5045798;28;20210;-79
2022/06/04 07:05:04;;;;;;;6.18;5.43;;;22.70;99.90;;;;;;5047472;28;20302;-80
2022/06/04 07:07:31;;;;;;;5.63;5.03;;;22.60;99.90;;;;;;5041771;28;20207;-79
2022/06/04 07:09:58;;;;;;;5.57;5.03;;;22.60;99.90;;;;;;5042006;28;20223;-79
2022/06/04 07:12:25;;;;;;;6.55;5.35;;;22.40;99.90;;;;;;5043728;28;20222;-79
2022/06/04 07:14:54;;;;;;;5.28;4.88;;;22.50;99.90;;;;;;5046675;28;20823;-78
2022/06/04 07:17:21;;;;;;;5.93;5.40;;;22.60;99.90;;;;;;5042718;28;20191;-79
2022/06/04 07:19:49;;;;;;;5.38;4.88;;;22.60;99.90;;;;;;5036353;28;20223;-79
2022/06/04 07:22:16;;;;;;;4.88;4.38;;;22.70;99.90;;;;;;5046701;28;20245;-79
2022/06/04 07:24:43;;;;;;;5.20;4.78;;;22.80;99.90;;;;;;5052020;28;20279;-79
2022/06/04 07:27:11;;;;;;;5.07;4.68;;;22.80;99.90;;;;;;5059208;28;20199;-78
2022/06/04 07:29:38;;;;;;;6.78;5.05;;;23.00;99.90;;;;;;5044792;28;20225;-79
2022/06/04 07:32:09;;;;;;;5.68;4.70;;;23.10;99.90;;;;;;5055440;28;20218;-79
2022/06/04 07:34:38;;;;;;;5.32;4.82;;;23.20;99.90;;;;;;5051274;28;20218;-79
2022/06/04 07:37:07;;;;;;;5.22;4.82;;;23.40;99.90;;;;;;5055079;28;20199;-79
2022/06/04 07:39:34;;;;;;;5.38;4.80;;;23.70;99.90;;;;;;5057349;28;20218;-78
2022/06/04 07:42:01;;;;;;;4.70;4.30;;;23.90;99.90;;;;;;5045443;28;20230;-79
2022/06/04 07:44:28;;;;;;;5.50;4.70;;;24.10;99.90;;;;;;5046483;28;20199;-79
2022/06/04 07:46:56;;;;;;;5.28;4.78;;;24.20;99.90;;;;;;5048093;28;20202;-78
2022/06/04 07:49:25;;;;;;;5.45;4.95;;;24.30;99.90;;;;;;5048026;28;20230;-79
2022/06/04 07:51:54;;;;;;;5.47;4.97;;;24.50;99.90;;;;;;5053646;28;20759;-78
2022/06/04 07:54:22;;;;;;;6.38;5.20;;;24.80;99.90;;;;;;5048419;28;20203;-77
2022/06/04 07:56:50;;;;;;;5.47;5.03;;;24.90;99.90;;;;;;5046484;28;20202;-78
2022/06/04 07:59:18;;;;;;;5.75;5.25;;;25.00;99.90;;;;;;5049045;28;20203;-78
2022/06/04 08:01:46;;;;;;;7.15;5.70;;;25.10;99.90;;;;;;5052040;28;20234;-78
2022/06/04 08:04:14;;;;;;;6.30;5.70;;;25.00;99.90;;;;;;5049241;28;20199;-78
2022/06/04 08:06:42;;;;;;;9.07;6.10;;;25.00;99.90;;;;;;5056896;28;20214;-79
2022/06/04 08:09:10;;;;;;;5.30;4.90;;;24.80;99.90;;;;;;5054372;28;20657;-79
2022/06/04 08:11:37;;;;;;;5.53;5.05;;;24.80;99.90;;;;;;5046334;28;20219;-79
2022/06/04 08:14:07;;;;;;;5.70;5.15;;;24.90;99.90;;;;;;5054074;28;20194;-79
2022/06/04 08:16:35;;;;;;;7.60;5.00;;;25.10;99.90;;;;;;5048437;28;20314;-79
2022/06/04 08:19:02;;;;;;;6.38;5.60;;;25.00;99.90;;;;;;5046713;28;20562;-79
2022/06/04 08:21:29;;;;;;;6.22;5.38;;;25.10;99.90;;;;;;5048902;28;20219;-79
2022/06/04 08:23:58;;;;;;;5.50;4.75;;;25.00;99.90;;;;;;5059436;28;20315;-79
2022/06/04 08:26:25;;;;;;;5.07;4.68;;;25.00;99.90;;;;;;5058358;28;20268;-79
2022/06/04 08:28:52;;;;;;;5.35;4.80;;;25.00;99.90;;;;;;5060358;28;20258;-80
2022/06/04 08:31:20;;;;;;;6.65;4.68;;;24.90;99.90;;;;;;5057363;28;20272;-79
2022/06/04 08:33:48;;;;;;;5.45;4.85;;;25.10;99.90;;;;;;5049338;28;20658;-79
2022/06/04 08:36:17;;;;;;;5.85;4.75;;;25.20;99.90;;;;;;5048743;28;20268;-79
2022/06/04 08:38:45;;;;;;;7.80;5.07;;;25.20;99.90;;;;;;5048134;28;20289;-77
2022/06/04 08:41:27;;;;;;;6.30;5.68;;;25.40;99.90;;;;;;5047021;28;20701;-78
2022/06/04 08:44:03;;;;;;;7.32;5.15;;;25.40;99.90;;;;;;5044030;28;20195;-79
2022/06/04 08:46:36;;;;;;;7.65;5.43;;;25.40;99.90;;;;;;5045834;28;20218;-77
2022/06/04 08:49:06;;;;;;;6.18;5.50;;;25.50;99.90;;;;;;5040322;28;20195;-79
2022/06/04 08:51:34;;;;;;;7.20;4.57;;;25.50;99.90;;;;;;5046336;28;20219;-78
2022/06/04 08:57:32;;;;;;;5.75;5.30;;;25.60;99.90;;;;;;5042943;28;20277;-78
2022/06/04 08:59:49;;;;;;;4.95;4.50;;;25.90;99.90;;;;;;5052955;28;20209;-79
2022/06/04 09:02:22;;;;;;;5.63;5.13;;;25.80;99.90;;;;;;5051382;28;20249;-79
2022/06/04 09:05:02;;;;;;;5.35;4.47;;;25.70;99.90;;;;;;5053949;28;20230;-79
2022/06/04 09:07:35;;;;;;;6.18;5.03;;;25.90;99.90;;;;;;5056169;28;20202;-80
2022/06/04 09:10:08;;;;;;;6.43;5.43;;;26.00;99.90;;;;;;5056167;28;20619;-80
2022/06/04 09:12:43;;;;;;;4.97;4.53;;;26.20;99.90;;;;;;5063311;28;20230;-80
2022/06/04 09:15:17;;;;;;;5.18;4.70;;;26.30;99.90;;;;;;5054917;28;20703;-80
2022/06/04 09:17:47;;;;;;;4.93;4.50;;;26.70;99.90;;;;;;5047279;28;20668;-80
2022/06/04 09:20:26;;;;;;;4.90;4.50;;;26.70;99.90;;;;;;5057556;28;20215;-79
2022/06/04 09:22:57;;;;;;;5.18;4.70;;;26.50;99.90;;;;;;5051759;28;20232;-79
2022/06/04 09:25:26;;;;;;;4.93;4.53;;;26.40;99.90;;;;;;5046887;28;20229;-79
2022/06/04 09:28:06;;;;;;;5.55;4.32;;;26.30;99.90;;;;;;5046594;28;20191;-79
2022/06/04 09:30:38;;;;;;;4.60;3.65;;;26.40;99.90;;;;;;5048285;28;20230;-79
2022/06/04 09:33:31;;;;;;;6.18;4.07;;;26.50;99.90;;;;;;5047878;28;20191;-80
2022/06/04 09:35:58;;;;;;;4.13;3.78;;;26.40;99.90;;;;;;5036966;28;20221;-80
2022/06/04 09:38:28;;;;;;;3.65;3.35;;;26.40;99.90;;;;;;5049942;28;20199;-79
2022/06/04 09:41:00;;;;;;;4.68;4.18;;;26.40;99.90;;;;;;5048405;28;20226;-79
2022/06/04 09:43:29;;;;;;;6.53;4.00;;;26.60;99.90;;;;;;5047014;28;20205;-79
2022/06/04 09:46:00;;;;;;;4.22;3.83;;;26.70;99.90;;;;;;5048324;28;20231;-79
2022/06/04 09:48:31;;;;;;;3.88;3.50;;;26.70;99.90;;;;;;5050736;28;20198;-79
2022/06/04 09:51:02;;;;;;;4.35;3.65;;;26.80;99.90;;;;;;5049872;28;20652;-79
2022/06/04 09:53:31;;;;;;;4.20;3.33;;;27.10;99.90;;;;;;5044745;28;20194;-79
2022/06/04 09:56:06;;;;;;;5.53;4.32;;;26.90;99.90;;;;;;5050987;28;20223;-79
2022/06/04 09:58:37;;;;;;;4.35;3.72;;;26.70;99.90;;;;;;5048287;28;20195;-79
2022/06/04 10:01:06;;;;;;;4.28;3.50;;;26.90;99.90;;;;;;5051590;28;20222;-79
2022/06/04 10:03:36;;;;;;;5.20;3.78;;;27.00;99.90;;;;;;5045049;28;20696;-79
2022/06/04 10:06:06;;;;;;;3.72;3.42;;;27.10;99.90;;;;;;5052507;28;20250;-80
2022/06/04 10:11:20;;;;;;;4.50;4.10;;;27.00;99.90;;;;;;5050441;28;20214;-79
2022/06/04 10:13:50;;;;;;;3.85;3.45;;;27.10;99.90;;;;;;5054968;28;20195;-79
2022/06/04 10:16:20;;;;;;;5.53;3.70;;;27.00;99.90;;;;;;5048800;28;20214;-79
2022/06/04 10:18:56;;;;;;;3.70;3.40;;;26.90;99.90;;;;;;5051028;28;20214;-77
2022/06/04 10:21:26;;;;;;;4.35;3.40;;;26.90;99.90;;;;;;5045085;28;20554;-79
2022/06/04 10:23:56;;;;;;;3.90;3.17;;;27.10;99.90;;;;;;5044492;28;20242;-79
2022/06/04 10:26:53;;;;;;;3.60;3.20;;;27.00;99.90;;;;;;5043653;28;20796;-78
2022/06/04 10:29:47;;;;;;;4.40;3.55;;;27.20;99.90;;;;;;5045169;28;20649;-77
2022/06/04 10:32:29;;;;;;;3.72;3.42;;;27.30;99.90;;;;;;5050283;28;20222;-79
2022/06/04 10:35:06;;;;;;;4.10;3.70;;;27.40;99.90;;;;;;5044920;28;20199;-79
2022/06/04 10:37:47;;;;;;;4.35;3.47;;;27.50;99.90;;;;;;5049070;28;20206;-79
2022/06/04 10:40:40;;;;;;;6.43;4.07;;;27.80;99.90;;;;;;5045116;28;20242;-80
2022/06/04 10:43:23;;;;;;;4.57;4.07;;;27.90;99.90;;;;;;5048261;28;20219;-78
2022/06/04 10:46:02;;;;;;;5.70;3.80;;;27.90;99.90;;;;;;5044542;28;20230;-79
2022/06/04 10:48:41;;;;;;;4.15;3.75;;;27.90;99.90;;;;;;5045899;28;20725;-78
2022/06/04 10:51:26;;;;;;;3.90;3.60;;;28.10;99.90;;;;;;5048466;28;20222;-79
2022/06/04 10:54:09;;;;;;;4.60;3.78;;;28.20;99.90;;;;;;5049244;28;20692;-79
2022/06/04 10:56:46;;;;;;;6.57;4.28;;;28.10;99.90;;;;;;5046665;28;20218;-79
2022/06/04 10:59:20;;;;;;;3.83;3.40;;;27.90;99.90;;;;;;5047324;28;20207;-78
2022/06/04 11:01:56;;;;;;;3.80;3.38;;;28.00;99.90;;;;;;5041177;28;20333;-78
2022/06/04 11:04:33;;;;;;;4.05;3.65;;;28.10;99.90;;;;;;5056077;28;20549;-79
2022/06/04 11:07:19;;;;;;;3.92;3.63;;;28.10;99.90;;;;;;5046967;28;20227;-79
2022/06/04 11:09:46;;;;;;;3.65;3.35;;;28.20;99.90;;;;;;5048585;28;20849;-79
2022/06/04 11:12:24;;;;;;;3.35;3.10;;;28.60;99.90;;;;;;5046470;28;20716;-78
2022/06/04 11:14:56;;;;;;;4.07;3.28;;;28.90;99.90;;;;;;5041875;28;20194;-78
2022/06/04 11:17:28;;;;;;;4.97;3.38;;;29.10;99.90;;;;;;5048831;28;20243;-78
2022/06/04 11:20:02;;;;;;;10.23;3.80;;;29.00;99.90;;;;;;5043796;28;20210;-78
2022/06/04 11:22:35;;;;;;;4.05;3.55;;;28.80;99.90;;;;;;5045260;28;20334;-79
2022/06/04 11:25:15;;;;;;;4.03;3.25;;;28.70;99.90;;;;;;5048642;28;20222;-79
2022/06/04 11:27:48;;;;;;;3.33;3.03;;;28.70;99.90;;;;;;5048027;28;20268;-79
2022/06/04 11:30:19;;;;;;;2.90;2.60;;;28.50;99.90;;;;;;5052849;28;20206;-78
2022/06/04 11:32:58;;;;;;;3.97;2.80;;;28.50;99.90;;;;;;5046826;28;20533;-79
2022/06/04 11:35:39;;;;;;;2.83;2.53;;;28.50;99.90;;;;;;5039509;28;20222;-78
2022/06/04 11:38:41;;;;;;;2.83;2.63;;;28.50;99.90;;;;;;5042015;28;20202;-78
2022/06/04 11:41:22;;;;;;;5.00;2.80;;;28.70;99.90;;;;;;5043800;28;20225;-78
2022/06/04 11:44:16;;;;;;;2.92;2.72;;;28.80;99.90;;;;;;5050524;28;20573;-78
2022/06/04 11:46:55;;;;;;;3.13;2.40;;;28.90;99.90;;;;;;5052811;28;20226;-78
2022/06/04 11:49:32;;;;;;;3.30;3.00;;;29.00;99.90;;;;;;5051610;28;20203;-79
2022/06/04 11:52:22;;;;;;;3.60;2.80;;;29.20;99.90;;;;;;5050220;28;20222;-79
2022/06/04 11:55:12;;;;;;;3.58;3.28;;;29.30;99.90;;;;;;5045982;28;20232;-79
2022/06/04 11:57:55;;;;;;;2.83;2.63;;;29.30;99.90;;;;;;5051910;28;20233;-79
2022/06/04 12:00:30;;;;;;;5.80;2.95;;;29.20;99.90;;;;;;5049848;28;20194;-79
2022/06/04 12:03:05;;;;;;;3.53;2.88;;;29.30;99.90;;;;;;5049999;28;20227;-78
2022/06/04 12:05:43;;;;;;;3.10;2.80;;;29.50;99.90;;;;;;5049328;28;20210;-79
2022/06/04 12:08:14;;;;;;;3.50;3.20;;;29.60;99.90;;;;;;5049927;28;20725;-79
2022/06/04 12:10:49;;;;;;;3.00;2.70;;;29.60;99.90;;;;;;5053980;28;20612;-79
2022/06/04 12:13:23;;;;;;;3.63;3.15;;;29.70;99.90;;;;;;5052854;28;20217;-79
2022/06/04 12:15:53;;;;;;;4.03;2.92;;;29.60;99.90;;;;;;5048929;28;20288;-78
2022/06/04 12:18:28;;;;;;;3.42;2.60;;;29.50;99.90;;;;;;5049781;28;20218;-78
2022/06/04 12:26:33;;;;;;;3.30;2.78;;;29.80;99.90;;;;;;5045730;28;20205;-78
2022/06/04 12:29:02;;;;;;;4.70;2.80;;;30.10;99.90;;;;;;5050188;28;20219;-79
2022/06/04 12:31:34;;;;;;;3.70;2.35;;;30.20;99.90;;;;;;5050912;28;20219;-78
2022/06/04 12:34:03;;;;;;;6.18;3.03;;;30.30;99.90;;;;;;5043084;28;20258;-78
2022/06/04 12:36:34;;;;;;;3.92;2.83;;;30.40;99.90;;;;;;5047075;28;20199;-78
2022/06/04 12:39:05;;;;;;;4.80;2.90;;;30.40;99.90;;;;;;5049079;28;20218;-78
2022/06/04 12:41:49;;;;;;;4.57;2.80;;;30.50;99.90;;;;;;5050710;28;20223;-78
2022/06/04 12:44:22;;;;;;;3.15;2.80;;;30.40;99.90;;;;;;5046082;28;20214;-78
2022/06/04 12:46:51;;;;;;;3.63;2.65;;;30.30;99.90;;;;;;5052936;28;20210;-79
2022/06/04 12:49:39;;;;;;;3.50;2.55;;;30.30;99.90;;;;;;5058452;28;20218;-79
2022/06/04 12:52:31;;;;;;;3.08;2.40;;;30.40;99.90;;;;;;5042724;28;20235;-78
2022/06/04 12:55:08;;;;;;;3.72;2.45;;;30.50;99.90;;;;;;5047656;28;20225;-78
2022/06/04 12:57:51;;;;;;;4.50;2.30;;;30.60;99.90;;;;;;5050651;28;20190;-78
2022/06/04 13:00:35;;;;;;;4.47;2.50;;;30.90;99.90;;;;;;5045323;28;20242;-79
2022/06/04 13:03:31;;;;;;;4.05;2.55;;;31.20;99.90;;;;;;5045081;28;20219;-79
2022/06/04 13:06:04;;;;;;;5.28;2.42;;;31.50;99.90;;;;;;5052247;28;20245;-79
2022/06/04 13:08:43;;;;;;;4.93;2.50;;;31.40;99.90;;;;;;5048257;28;20230;-79
2022/06/04 13:11:28;;;;;;;7.85;2.83;;;31.40;99.90;;;;;;5045431;28;20245;-78
2022/06/04 13:14:06;;;;;;;6.07;2.55;;;31.50;99.90;;;;;;5043536;28;20215;-79
2022/06/04 13:16:45;;;;;;;5.57;2.33;;;31.70;99.90;;;;;;5053167;28;20206;-79
2022/06/04 13:19:29;;;;;;;5.35;2.72;;;31.90;99.90;;;;;;5053044;28;20226;-78
2022/06/04 13:22:00;;;;;;;5.57;2.58;;;31.90;99.90;;;;;;5046925;28;20218;-79
2022/06/04 13:24:33;;;;;;;9.05;3.10;;;31.80;99.90;;;;;;5056387;28;20214;-79
2022/06/04 13:27:03;;;;;;;5.78;3.20;;;31.70;99.90;;;;;;5047970;28;20607;-79
2022/06/04 13:29:32;;;;;;;7.75;3.10;;;31.50;99.90;;;;;;5049752;28;20218;-79
2022/06/04 13:32:01;;;;;;;6.88;3.08;;;31.40;99.90;;;;;;5053825;28;20223;-79